createdAt,value
2023-05-10T17:09:42.380Z,59.55
2023-05-10T17:12:08.664Z,57.51
2023-05-10T17:13:10.548Z,55.91
2023-05-10T17:14:09.665Z,57.21
2023-05-10T17:15:09.689Z,56.91
2023-05-10T17:16:09.697Z,56.54
2023-05-10T17:17:09.637Z,56.63
2023-05-10T17:18:09.704Z,57.57
2023-05-10T17:19:09.758Z,58.17
2023-05-10T17:20:09.592Z,57.70
2023-05-10T17:21:09.599Z,58.20
2023-05-10T17:22:09.565Z,58.00
2023-05-10T17:23:09.553Z,58.42
2023-05-10T17:24:09.546Z,58.42
2023-05-10T17:25:09.526Z,58.05
2023-05-10T17:26:09.556Z,57.55
2023-05-10T17:27:09.502Z,57.68
2023-05-10T17:28:09.548Z,57.68
2023-05-10T17:29:09.480Z,58.38
2023-05-10T17:30:09.484Z,58.61
2023-05-10T17:31:09.491Z,58.31
2023-05-10T17:32:09.471Z,58.01
2023-05-10T17:33:09.457Z,58.31
2023-05-10T17:34:09.464Z,58.91
2023-05-10T17:35:09.412Z,59.11
2023-05-10T17:36:09.408Z,58.31
2023-05-10T17:37:09.428Z,58.51
2023-05-10T17:38:09.376Z,58.54
2023-05-10T17:39:09.358Z,59.64
2023-05-10T17:40:09.381Z,59.44
2023-05-10T17:41:09.347Z,59.24
2023-05-10T17:42:09.376Z,59.44
2023-05-10T17:43:09.344Z,59.64
2023-05-10T17:44:09.327Z,59.55
2023-05-10T17:45:09.309Z,59.55
2023-05-10T17:46:09.320Z,59.84
2023-05-10T17:47:09.308Z,61.05
2023-05-10T17:48:09.309Z,59.88
2023-05-10T17:49:09.267Z,60.38
2023-05-10T17:50:09.252Z,61.79
2023-05-10T17:51:09.230Z,61.89
2023-05-10T17:52:09.272Z,60.08
2023-05-10T17:53:09.207Z,59.67
2023-05-10T17:54:09.190Z,61.29
2023-05-10T17:55:09.186Z,61.29
2023-05-10T17:56:09.172Z,60.88
2023-05-10T17:57:09.171Z,61.72
2023-05-10T17:58:09.180Z,62.22
2023-05-10T17:59:09.137Z,62.22
2023-05-10T18:00:09.146Z,62.63
2023-05-10T18:01:09.113Z,63.23
2023-05-10T18:02:09.090Z,63.13
2023-05-10T18:03:09.217Z,63.67
2023-05-10T18:04:09.120Z,62.25
2023-05-10T18:05:09.099Z,62.85
2023-05-10T18:06:09.154Z,63.87
2023-05-10T18:07:09.075Z,64.17
2023-05-10T18:08:09.050Z,63.96
2023-05-10T18:09:09.039Z,63.70
2023-05-10T18:10:09.026Z,64.30
2023-05-10T18:11:08.997Z,64.40
2023-05-10T18:12:08.994Z,64.64
2023-05-10T18:13:09.091Z,64.33
2023-05-10T18:14:08.985Z,63.62
2023-05-10T18:15:08.961Z,64.94
2023-05-10T18:16:08.943Z,64.73
2023-05-10T18:17:09.022Z,65.64
2023-05-10T18:18:09.013Z,65.24
2023-05-10T18:19:08.967Z,65.44
2023-05-10T18:20:08.881Z,65.37
2023-05-10T18:21:08.895Z,65.37
2023-05-10T18:22:10.675Z,65.98
2023-05-10T18:23:08.887Z,66.18
2023-05-10T18:24:09.030Z,66.18
2023-05-10T18:25:08.860Z,66.41
2023-05-10T18:26:08.974Z,66.21
2023-05-10T18:27:08.909Z,67.02
2023-05-10T18:28:08.796Z,66.92
2023-05-10T18:29:08.830Z,67.02
2023-05-10T18:30:08.797Z,67.12
2023-05-10T18:31:08.829Z,66.72
2023-05-10T18:32:08.758Z,67.52
2023-05-10T18:33:08.809Z,67.76
2023-05-10T18:34:08.773Z,67.76
2023-05-10T18:35:08.733Z,68.47
2023-05-10T18:36:08.713Z,69.58
2023-05-10T18:37:08.706Z,67.46
2023-05-10T18:38:08.693Z,69.78
2023-05-10T18:39:08.723Z,68.97
2023-05-10T18:40:08.715Z,69.38
2023-05-10T18:41:08.683Z,70.29
2023-05-10T18:42:08.637Z,71.80
2023-05-10T18:43:08.641Z,69.58
2023-05-10T18:44:08.604Z,69.38
2023-05-10T18:45:08.634Z,68.77
2023-05-10T18:46:08.618Z,69.18
2023-05-10T18:47:08.591Z,69.51
2023-05-10T18:48:08.672Z,70.62
2023-05-10T18:49:08.592Z,70.52
2023-05-10T18:50:08.602Z,70.73
2023-05-10T18:51:08.545Z,71.23
2023-05-10T18:52:08.554Z,72.08
2023-05-10T18:53:08.547Z,72.38
2023-05-10T18:54:08.550Z,71.77
2023-05-10T18:55:08.511Z,72.68
2023-05-10T18:56:08.527Z,73.90
2023-05-10T18:57:08.479Z,73.49
2023-05-10T18:58:08.476Z,74.10
2023-05-10T18:59:08.469Z,73.39
2023-05-10T19:00:08.434Z,73.49
2023-05-10T19:01:28.091Z,73.09
2023-05-10T19:02:28.811Z,72.48
2023-05-10T19:03:28.777Z,72.81
2023-05-10T19:04:28.779Z,73.32
2023-05-10T19:05:28.742Z,74.13
2023-05-10T19:06:28.761Z,72.81
2023-05-10T19:07:28.715Z,72.41
2023-05-10T19:08:28.747Z,71.80
2023-05-10T19:09:28.729Z,72.72
2023-05-10T19:10:28.671Z,72.21
2023-05-10T19:11:28.674Z,72.92
2023-05-10T19:12:28.694Z,72.41
2023-05-10T19:13:28.644Z,73.32
2023-05-10T19:14:28.619Z,72.52
2023-05-10T19:15:28.632Z,74.04
2023-05-10T19:16:28.947Z,72.61
2023-05-10T19:17:29.365Z,72.31
2023-05-10T19:18:28.618Z,73.63
2023-05-10T19:19:28.568Z,74.24
2023-05-10T19:20:28.555Z,73.53
2023-05-10T19:21:28.566Z,73.32
2023-05-10T19:22:44.877Z,73.43
2023-05-10T19:23:32.878Z,74.13
2023-05-10T19:24:28.509Z,74.27
2023-05-10T19:25:28.516Z,74.48
2023-05-10T19:26:28.500Z,74.77
2023-05-10T19:27:28.513Z,75.28
2023-05-10T19:28:28.512Z,74.88
2023-05-10T19:29:29.345Z,75.38
2023-05-10T19:30:28.446Z,74.51
2023-05-10T19:31:28.439Z,75.82
2023-05-10T19:32:28.471Z,75.82
2023-05-10T19:33:28.420Z,76.13
2023-05-10T19:34:28.904Z,75.93
2023-05-10T19:35:28.368Z,76.23
2023-05-10T19:36:28.433Z,76.13
2023-05-10T19:37:28.868Z,76.33
2023-05-10T19:38:28.373Z,77.14
2023-05-10T19:39:28.703Z,76.54
2023-05-10T19:40:28.366Z,76.43
2023-05-10T19:41:28.316Z,77.04
2023-05-10T19:42:28.337Z,77.28
2023-05-10T19:43:28.361Z,77.18
2023-05-10T19:44:28.569Z,77.89
2023-05-10T19:45:28.313Z,77.48
2023-05-10T19:46:28.359Z,77.62
2023-05-10T19:47:28.295Z,78.23
2023-05-10T19:48:28.268Z,77.93
2023-05-10T19:49:28.285Z,78.33
2023-05-10T19:50:28.304Z,77.62
2023-05-10T19:51:28.222Z,77.83
2023-05-10T19:52:28.195Z,78.13
2023-05-10T19:53:30.084Z,77.93
2023-05-10T19:54:55.680Z,77.83
2023-05-10T19:56:01.112Z,78.13
2023-05-10T19:59:06.660Z,77.72
2023-05-10T19:59:31.556Z,77.93
2023-05-10T20:01:26.324Z,77.32
2023-05-10T20:02:27.346Z,77.42
2023-05-10T20:04:54.529Z,77.93
2023-05-10T20:05:55.557Z,78.27
2023-05-10T20:06:55.497Z,78.37
2023-05-10T20:07:55.519Z,78.27
2023-05-10T20:08:55.494Z,78.17
2023-05-10T20:09:55.470Z,78.47
2023-05-10T20:10:55.510Z,78.37
2023-05-10T20:11:55.455Z,77.25
2023-05-10T20:12:55.464Z,77.56
2023-05-10T20:13:55.432Z,77.45
2023-05-10T20:14:55.451Z,77.86
2023-05-10T20:15:55.398Z,78.67
2023-05-10T20:16:55.530Z,78.57
2023-05-10T20:17:55.439Z,78.57
2023-05-10T20:18:55.466Z,78.30
2023-05-10T20:19:55.361Z,79.12
2023-05-10T20:20:55.386Z,79.02
2023-05-10T20:21:55.388Z,78.81
2023-05-10T20:22:55.371Z,77.49
2023-05-10T20:23:55.306Z,78.30
2023-05-10T20:24:56.202Z,77.09
2023-05-10T20:25:55.322Z,77.66
2023-05-10T20:26:55.297Z,77.70
2023-05-10T20:27:55.321Z,76.37
2023-05-10T20:28:55.288Z,76.37
2023-05-10T20:29:55.235Z,75.93
2023-05-10T20:30:55.242Z,76.24
2023-05-10T20:31:55.259Z,76.64
2023-05-10T20:32:55.320Z,77.15
2023-05-10T20:33:55.234Z,76.95
2023-05-10T20:34:55.191Z,76.95
2023-05-10T20:35:55.191Z,76.68
2023-05-10T20:36:55.198Z,76.78
2023-05-10T20:37:55.166Z,77.56
2023-05-10T20:38:55.191Z,77.70
2023-05-10T20:39:55.149Z,77.49
2023-05-10T20:40:55.145Z,77.80
2023-05-10T20:41:55.104Z,77.90
2023-05-10T20:42:55.145Z,77.80
2023-05-10T20:43:55.164Z,78.10
2023-05-10T20:44:55.100Z,77.70
2023-05-10T20:45:55.108Z,77.83
2023-05-10T20:46:55.056Z,77.94
2023-05-10T20:47:55.208Z,77.73
2023-05-10T20:48:55.055Z,77.63
2023-05-10T20:49:55.070Z,77.87
2023-05-10T20:50:55.035Z,77.67
2023-05-10T20:51:55.010Z,77.26
2023-05-10T20:52:55.025Z,78.08
2023-05-10T20:53:54.972Z,77.97
2023-05-10T20:54:54.972Z,77.56
2023-05-10T20:55:54.972Z,78.48
2023-05-10T20:56:54.998Z,78.28
2023-05-10T20:57:54.965Z,77.87
2023-05-10T20:58:54.937Z,77.87
2023-05-10T20:59:54.914Z,77.77
2023-05-10T21:00:54.916Z,77.97
2023-05-10T21:01:54.917Z,77.87
2023-05-10T21:02:54.838Z,78.08
2023-05-10T21:03:54.864Z,77.97
2023-05-10T21:04:57.100Z,77.56
2023-05-10T21:05:54.881Z,77.47
2023-05-10T21:06:54.855Z,78.08
2023-05-10T21:07:54.825Z,77.87
2023-05-10T21:08:54.824Z,76.95
2023-05-10T21:09:54.816Z,77.06
2023-05-10T21:10:54.835Z,77.36
2023-05-10T21:11:54.776Z,77.56
2023-05-10T21:12:54.761Z,77.56
2023-05-10T21:13:54.774Z,78.08
2023-05-10T21:14:54.789Z,77.97
2023-05-10T21:15:54.831Z,77.36
2023-05-10T21:16:54.773Z,77.87
2023-05-10T21:17:54.728Z,77.26
2023-05-10T21:18:54.748Z,77.02
2023-05-10T21:19:54.696Z,76.92
2023-05-10T21:20:54.767Z,77.47
2023-05-10T21:21:54.656Z,77.67
2023-05-10T21:22:54.678Z,77.63
2023-05-10T21:23:54.663Z,77.56
2023-05-10T21:24:54.646Z,76.95
2023-05-10T21:25:54.617Z,77.26
2023-05-10T21:26:54.620Z,77.36
2023-05-10T21:27:54.592Z,77.36
2023-05-10T21:28:54.636Z,77.36
2023-05-10T21:29:54.592Z,77.26
2023-05-10T21:30:54.584Z,77.47
2023-05-10T21:31:54.601Z,76.95
2023-05-10T21:32:54.607Z,77.16
2023-05-10T21:33:54.560Z,77.77
2023-05-10T21:34:54.621Z,77.47
2023-05-10T21:35:54.527Z,77.87
2023-05-10T21:36:54.545Z,77.77
2023-05-10T21:37:54.539Z,77.36
2023-05-10T21:38:54.460Z,76.95
2023-05-10T21:39:54.512Z,77.67
2023-05-10T21:40:54.447Z,77.97
2023-05-10T21:41:54.444Z,77.26
2023-05-10T21:42:54.429Z,77.81
2023-05-10T21:43:54.420Z,77.70
2023-05-10T21:44:54.421Z,77.60
2023-05-10T21:45:54.498Z,78.31
2023-05-10T21:46:54.402Z,78.41
2023-05-10T21:47:54.416Z,77.81
2023-05-10T21:48:54.381Z,77.29
2023-05-10T21:49:54.356Z,78.21
2023-05-10T21:50:54.324Z,78.01
2023-05-10T21:51:54.385Z,78.11
2023-05-10T21:52:54.301Z,78.11
2023-05-10T21:53:54.302Z,78.11
2023-05-10T21:54:54.300Z,78.01
2023-05-10T21:55:54.305Z,77.91
2023-05-10T21:56:54.322Z,78.31
2023-05-10T21:57:54.252Z,78.21
2023-05-10T21:58:54.259Z,78.01
2023-05-10T21:59:54.274Z,78.31
2023-05-10T22:00:54.254Z,78.82
2023-05-10T22:01:54.214Z,79.02
2023-05-10T22:02:54.330Z,78.21
2023-05-10T22:03:54.197Z,77.91
2023-05-10T22:04:54.170Z,78.45
2023-05-10T22:05:54.139Z,78.86
2023-05-10T22:06:54.148Z,78.76
2023-05-10T22:07:54.157Z,78.86
2023-05-10T22:08:54.174Z,79.27
2023-05-10T22:09:54.116Z,78.96
2023-05-10T22:10:54.122Z,78.76
2023-05-10T22:11:54.117Z,78.86
2023-05-10T22:12:54.122Z,78.76
2023-05-10T22:13:54.113Z,78.25
2023-05-10T22:15:09.145Z,78.55
2023-05-10T22:15:54.084Z,78.45
2023-05-10T22:16:54.070Z,78.96
2023-05-10T22:17:54.102Z,79.06
2023-05-10T22:18:54.069Z,79.27
2023-05-10T22:19:54.037Z,79.27
2023-05-10T22:20:54.024Z,78.96
2023-05-10T22:21:53.996Z,78.76
2023-05-10T22:22:53.969Z,78.76
2023-05-10T22:23:53.963Z,79.06
2023-05-10T22:24:54.002Z,78.66
2023-05-10T22:25:53.976Z,78.52
2023-05-10T22:26:53.923Z,78.52
2023-05-10T22:27:53.914Z,78.45
2023-05-10T22:28:53.911Z,78.35
2023-05-10T22:29:53.914Z,78.76
2023-05-10T22:30:53.960Z,78.96
2023-05-10T22:31:53.878Z,79.57
2023-05-10T22:32:53.886Z,79.68
2023-05-10T22:33:53.840Z,79.50
2023-05-10T22:34:53.837Z,79.91
2023-05-10T22:35:53.832Z,79.61
2023-05-10T22:36:53.852Z,79.50
2023-05-10T22:37:53.805Z,80.11
2023-05-10T22:38:53.793Z,79.71
2023-05-10T22:39:53.800Z,79.81
2023-05-10T22:40:53.779Z,79.71
2023-05-10T22:41:53.749Z,79.81
2023-05-10T22:42:53.771Z,80.11
2023-05-10T22:43:53.744Z,80.32
2023-05-10T22:44:53.711Z,80.42
2023-05-10T22:45:53.708Z,79.91
2023-05-10T22:46:53.755Z,80.11
2023-05-10T22:47:53.770Z,80.32
2023-05-10T22:48:53.699Z,80.22
2023-05-10T22:49:53.658Z,80.56
2023-05-10T22:50:53.649Z,80.87
2023-05-10T22:51:53.682Z,80.56
2023-05-10T22:52:53.652Z,80.77
2023-05-10T22:53:53.654Z,80.73
2023-05-10T22:54:53.604Z,80.52
2023-05-10T22:55:53.595Z,80.42
2023-05-10T22:56:53.588Z,80.73
2023-05-10T22:57:53.553Z,80.42
2023-05-10T22:58:53.566Z,80.26
2023-05-10T22:59:53.581Z,80.56
2023-05-10T23:00:53.543Z,80.56
2023-05-10T23:01:53.589Z,80.77
2023-05-10T23:02:53.539Z,81.48
2023-05-10T23:03:53.513Z,81.07
2023-05-10T23:04:53.578Z,81.07
2023-05-10T23:05:53.507Z,81.41
2023-05-10T23:06:53.464Z,81.21
2023-05-10T23:07:53.475Z,81.58
2023-05-10T23:08:53.442Z,81.82
2023-05-10T23:09:53.458Z,81.82
2023-05-10T23:10:53.489Z,81.52
2023-05-10T23:11:53.415Z,81.41
2023-05-10T23:12:53.386Z,81.93
2023-05-10T23:13:53.381Z,81.82
2023-05-10T23:14:53.364Z,81.62
2023-05-10T23:15:53.417Z,81.52
2023-05-10T23:16:53.371Z,81.72
2023-05-10T23:17:53.396Z,81.52
2023-05-10T23:18:53.397Z,81.41
2023-05-10T23:19:53.305Z,81.01
2023-05-10T23:20:53.305Z,80.80
2023-05-10T23:21:53.316Z,81.11
2023-05-10T23:22:53.348Z,80.91
2023-05-10T23:23:53.305Z,80.91
2023-05-10T23:24:53.238Z,81.11
2023-05-10T23:25:53.261Z,81.52
2023-05-10T23:26:53.529Z,81.62
2023-05-10T23:27:53.701Z,81.21
2023-05-10T23:28:53.515Z,81.21
2023-05-10T23:29:53.622Z,81.62
2023-05-10T23:30:53.196Z,81.72
2023-05-10T23:31:53.198Z,81.41
2023-05-10T23:32:53.192Z,81.62
2023-05-10T23:33:53.149Z,81.82
2023-05-10T23:34:53.194Z,81.45
2023-05-10T23:35:53.123Z,81.35
2023-05-10T23:36:53.104Z,81.56
2023-05-10T23:37:53.116Z,81.76
2023-05-10T23:38:53.087Z,81.90
2023-05-10T23:39:53.149Z,81.86
2023-05-10T23:40:53.071Z,81.96
2023-05-10T23:41:53.071Z,82.10
2023-05-10T23:42:53.050Z,82.17
2023-05-10T23:43:53.040Z,82.27
2023-05-10T23:44:53.029Z,82.27
2023-05-10T23:45:53.104Z,82.07
2023-05-10T23:46:52.995Z,82.47
2023-05-10T23:47:53.062Z,82.07
2023-05-10T23:48:52.975Z,81.66
2023-05-10T23:49:53.002Z,81.35
2023-05-10T23:50:52.973Z,81.56
2023-05-10T23:51:52.950Z,81.76
2023-05-10T23:52:52.925Z,81.86
2023-05-10T23:53:52.921Z,81.62
2023-05-10T23:54:52.904Z,81.01
2023-05-10T23:55:52.928Z,80.80
2023-05-10T23:56:52.884Z,81.11
2023-05-10T23:57:52.876Z,81.31
2023-05-10T23:58:52.860Z,81.11
2023-05-10T23:59:52.851Z,81.21
